Time;durP1;ratioP1;P1;durP2;ratioP2;P2;SDS_P1;SDS_P2;PMS_P1;PMS_P2;Temp;Humidity;BMP_temperature;BMP_pressure;BME280_temperature;BME280_humidity;BME280_pressure;Samples;Min_cycle;Max_cycle;Signal;HPM_P1;HPM_P2
2022/07/25 00:01:45;;;;;;;10.02;4.25;;;;;;;;;;5052022;28;20581;-67
2022/07/25 00:04:13;;;;;;;10.50;3.80;;;;;;;;;;5052623;28;20396;-67
2022/07/25 00:06:39;;;;;;;9.05;4.18;;;;;;;;;;5053101;28;20056;-67
2022/07/25 00:09:05;;;;;;;10.52;3.80;;;;;;;;;;5052718;28;20077;-66
2022/07/25 00:11:31;;;;;;;8.93;3.75;;;;;;;;;;5052946;28;20131;-66
2022/07/25 00:13:57;;;;;;;9.30;3.97;;;;;;;;;;5052096;28;20040;-67
2022/07/25 00:16:23;;;;;;;9.80;3.65;;;;;;;;;;5052467;28;20048;-67
2022/07/25 00:18:49;;;;;;;7.85;3.63;;;;;;;;;;5051658;28;20041;-67
2022/07/25 00:21:15;;;;;;;9.95;3.85;;;;;;;;;;5051066;28;20362;-67
2022/07/25 00:23:41;;;;;;;11.02;3.92;;;;;;;;;;5051761;28;20147;-67
2022/07/25 00:26:07;;;;;;;9.30;4.20;;;;;;;;;;5051815;28;20215;-68
2022/07/25 00:28:34;;;;;;;10.43;3.83;;;;;;;;;;5034807;28;20139;-67
2022/07/25 00:31:00;;;;;;;8.25;3.63;;;;;;;;;;5052251;28;20065;-67
2022/07/25 00:33:26;;;;;;;10.60;4.20;;;;;;;;;;5033281;28;20393;-67
2022/07/25 00:35:52;;;;;;;9.85;3.90;;;;;;;;;;5051663;28;20131;-68
2022/07/25 00:38:18;;;;;;;10.77;4.15;;;;;;;;;;5054591;28;20048;-66
2022/07/25 00:40:44;;;;;;;9.27;4.50;;;;;;;;;;5056189;28;20135;-65
2022/07/25 00:43:10;;;;;;;10.63;4.40;;;;;;;;;;5055761;28;20146;-66
2022/07/25 00:45:36;;;;;;;11.23;4.20;;;;;;;;;;5055263;28;20093;-66
2022/07/25 00:48:03;;;;;;;11.00;4.20;;;;;;;;;;5037493;28;20053;-67
2022/07/25 00:50:29;;;;;;;10.35;4.38;;;;;;;;;;5055233;28;20132;-66
2022/07/25 00:52:55;;;;;;;11.70;4.60;;;;;;;;;;5055301;28;20075;-67
2022/07/25 00:55:21;;;;;;;8.73;4.25;;;;;;;;;;5055444;28;20439;-66
2022/07/25 00:57:47;;;;;;;11.50;4.60;;;;;;;;;;5054952;28;20056;-70
2022/07/25 01:00:14;;;;;;;10.90;4.97;;;;;;;;;;5055400;28;20051;-66
2022/07/25 01:02:40;;;;;;;9.50;4.25;;;;;;;;;;5055323;28;20098;-66
2022/07/25 01:05:07;;;;;;;9.88;4.75;;;;;;;;;;5054717;28;20091;-67
2022/07/25 01:07:33;;;;;;;10.23;4.90;;;;;;;;;;5055014;28;20392;-65
2022/07/25 01:09:59;;;;;;;10.40;5.65;;;;;;;;;;5054821;28;20045;-65
2022/07/25 01:12:26;;;;;;;11.30;5.40;;;;;;;;;;5055163;28;20057;-65
2022/07/25 01:14:52;;;;;;;12.85;5.55;;;;;;;;;;5054797;28;20045;-68
2022/07/25 01:17:18;;;;;;;10.75;5.22;;;;;;;;;;5055291;28;20125;-67
2022/07/25 01:19:45;;;;;;;13.00;5.95;;;;;;;;;;5055208;28;20056;-66
2022/07/25 01:22:11;;;;;;;10.60;5.47;;;;;;;;;;5054574;28;20059;-67
2022/07/25 01:24:38;;;;;;;11.13;5.90;;;;;;;;;;5054691;28;20057;-66
2022/07/25 01:27:04;;;;;;;10.52;5.68;;;;;;;;;;5055022;28;20041;-66
2022/07/25 01:29:30;;;;;;;12.70;6.03;;;;;;;;;;5054545;28;20059;-67
2022/07/25 01:31:56;;;;;;;14.52;6.30;;;;;;;;;;5054185;28;20049;-66
2022/07/25 01:34:22;;;;;;;11.70;5.90;;;;;;;;;;5054348;28;20127;-67
2022/07/25 01:36:49;;;;;;;11.48;6.10;;;;;;;;;;5054208;28;20045;-66
2022/07/25 01:39:15;;;;;;;11.13;6.20;;;;;;;;;;5036678;28;20136;-67
2022/07/25 01:41:41;;;;;;;14.32;6.60;;;;;;;;;;5019976;28;20534;-66
2022/07/25 01:44:07;;;;;;;13.55;6.53;;;;;;;;;;5053827;28;20500;-67
2022/07/25 01:46:33;;;;;;;14.40;6.55;;;;;;;;;;5053773;28;20409;-67
2022/07/25 01:48:59;;;;;;;13.65;6.97;;;;;;;;;;5053376;28;20128;-66
2022/07/25 01:51:25;;;;;;;12.88;7.07;;;;;;;;;;5054547;28;20052;-67
2022/07/25 01:53:51;;;;;;;14.63;7.28;;;;;;;;;;5054138;28;20048;-67
2022/07/25 01:56:17;;;;;;;12.80;7.00;;;;;;;;;;5053990;28;20048;-66
2022/07/25 01:58:43;;;;;;;14.25;6.85;;;;;;;;;;5053841;28;20037;-66
2022/07/25 02:01:09;;;;;;;14.60;7.78;;;;;;;;;;5052746;28;20526;-67
2022/07/25 02:03:35;;;;;;;;;;;;;;;;;;5054368;28;20049;-67
2022/07/25 02:06:02;;;;;;;13.48;7.30;;;;;;;;;;5053956;28;19966;-66
2022/07/25 02:08:29;;;;;;;13.05;7.50;;;;;;;;;;5053601;28;20467;-67
2022/07/25 02:10:56;;;;;;;12.63;7.68;;;;;;;;;;5053769;28;20132;-66
2022/07/25 02:13:22;;;;;;;12.52;7.25;;;;;;;;;;5052390;28;20091;-66
2022/07/25 02:15:48;;;;;;;11.90;6.88;;;;;;;;;;5054047;28;20133;-67
2022/07/25 02:18:14;;;;;;;12.60;6.68;;;;;;;;;;5053983;28;20040;-67
2022/07/25 02:20:41;;;;;;;12.52;6.90;;;;;;;;;;5053849;28;20425;-66
2022/07/25 02:23:07;;;;;;;13.05;7.03;;;;;;;;;;5054290;28;20063;-66
2022/07/25 02:25:33;;;;;;;13.25;6.50;;;;;;;;;;5035888;28;20045;-66
2022/07/25 02:27:59;;;;;;;13.10;7.28;;;;;;;;;;5053718;28;20389;-70
2022/07/25 02:30:25;;;;;;;13.25;8.07;;;;;;;;;;5053466;28;20142;-67
2022/07/25 02:32:52;;;;;;;13.35;7.45;;;;;;;;;;5053200;28;20064;-66
2022/07/25 02:35:18;;;;;;;14.07;7.60;;;;;;;;;;5053309;28;20175;-67
2022/07/25 02:37:44;;;;;;;12.63;7.45;;;;;;;;;;5053219;28;20055;-67
2022/07/25 02:40:10;;;;;;;13.05;6.95;;;;;;;;;;5035414;28;20451;-68
2022/07/25 02:42:36;;;;;;;12.63;7.50;;;;;;;;;;5053364;28;20484;-67
2022/07/25 02:45:02;;;;;;;;;;;;;;;;;;5053619;28;20412;-68
2022/07/25 02:47:28;;;;;;;12.98;7.88;;;;;;;;;;5053332;28;19921;-67
2022/07/25 02:49:54;;;;;;;17.40;7.70;;;;;;;;;;5035752;28;20492;-67
2022/07/25 02:52:20;;;;;;;;;;;;;;;;;;5054625;28;20049;-67
2022/07/25 02:54:46;;;;;;;14.05;7.68;;;;;;;;;;5054310;28;20374;-67
2022/07/25 02:57:12;;;;;;;;;;;;;;;;;;5054315;28;20378;-67
2022/07/25 02:59:38;;;;;;;14.48;7.32;;;;;;;;;;5052419;28;19951;-67
2022/07/25 03:02:04;;;;;;;;;;;;;;;;;;5052436;28;20493;-68
2022/07/25 03:04:30;;;;;;;12.60;7.05;;;;;;;;;;5053073;28;19942;-67
2022/07/25 03:06:56;;;;;;;13.10;7.22;;;;;;;;;;5052852;28;20052;-68
2022/07/25 03:09:22;;;;;;;13.93;7.63;;;;;;;;;;5052669;28;20087;-68
2022/07/25 03:11:50;;;;;;;21.85;8.30;;;;;;;;;;5052590;28;20048;-67
2022/07/25 03:14:17;;;;;;;21.15;7.28;;;;;;;;;;5052511;28;20053;-68
2022/07/25 03:16:43;;;;;;;13.52;7.43;;;;;;;;;;5052247;28;20519;-67
2022/07/25 03:19:09;;;;;;;;;;;;;;;;;;5052742;28;20428;-67
2022/07/25 03:21:36;;;;;;;14.00;7.28;;;;;;;;;;5052467;28;19929;-68
2022/07/25 03:24:02;;;;;;;15.27;7.63;;;;;;;;;;5052917;28;20091;-67
2022/07/25 03:26:28;;;;;;;14.68;7.30;;;;;;;;;;5034371;28;20060;-67
2022/07/25 03:28:54;;;;;;;14.95;7.45;;;;;;;;;;5052416;28;20454;-68
2022/07/25 03:31:20;;;;;;;;;;;;;;;;;;5052251;28;20519;-68
2022/07/25 03:33:46;;;;;;;13.45;7.50;;;;;;;;;;5052282;28;19929;-68
2022/07/25 03:36:12;;;;;;;;;;;;;;;;;;5051903;28;20048;-68
2022/07/25 03:38:38;;;;;;;15.63;7.78;;;;;;;;;;5051667;28;19920;-67
2022/07/25 03:41:04;;;;;;;;;;;;;;;;;;5051944;28;20049;-67
2022/07/25 03:43:31;;;;;;;15.82;8.20;;;;;;;;;;5051046;28;19943;-68
2022/07/25 03:45:57;;;;;;;13.05;7.70;;;;;;;;;;5051512;28;20045;-67
2022/07/25 03:48:23;;;;;;;;;;;;;;;;;;5051304;28;20131;-68
2022/07/25 03:50:49;;;;;;;14.93;8.77;;;;;;;;;;5050723;28;19920;-67
2022/07/25 03:53:15;;;;;;;;;;;;;;;;;;5051099;28;20045;-68
2022/07/25 03:55:41;;;;;;;13.77;8.52;;;;;;;;;;5050550;28;19982;-66
2022/07/25 03:58:07;;;;;;;;;;;;;;;;;;5050483;28;20489;-65
2022/07/25 04:00:33;;;;;;;14.15;9.25;;;;;;;;;;5050431;28;19927;-64
2022/07/25 04:02:59;;;;;;;;;;;;;;;;;;5033017;28;20396;-66
2022/07/25 04:05:25;;;;;;;19.92;10.05;;;;;;;;;;5050416;28;19920;-66
2022/07/25 04:07:51;;;;;;;;;;;;;;;;;;5051107;28;20480;-65
2022/07/25 04:10:17;;;;;;;16.02;9.98;;;;;;;;;;5033437;28;19921;-67
2022/07/25 04:12:43;;;;;;;;;;;;;;;;;;5053348;28;20346;-66
2022/07/25 04:15:09;;;;;;;15.48;9.35;;;;;;;;;;5054324;28;19921;-67
2022/07/25 04:17:35;;;;;;;16.52;9.77;;;;;;;;;;5054212;28;20049;-66
2022/07/25 04:20:01;;;;;;;;;;;;;;;;;;5054550;28;20049;-66
2022/07/25 04:22:27;;;;;;;17.55;11.70;;;;;;;;;;5054519;28;19978;-65
2022/07/25 04:24:53;;;;;;;;;;;;;;;;;;5055057;28;20055;-66
2022/07/25 04:27:19;;;;;;;19.40;10.48;;;;;;;;;;5054419;28;19921;-67
2022/07/25 04:29:45;;;;;;;;;;;;;;;;;;5055458;28;20040;-66
2022/07/25 04:32:12;;;;;;;17.27;10.85;;;;;;;;;;5054401;28;20023;-66
2022/07/25 04:34:38;;;;;;;18.13;11.45;;;;;;;;;;5054477;28;20095;-66
2022/07/25 04:37:04;;;;;;;16.10;10.43;;;;;;;;;;5054324;28;20048;-65
2022/07/25 04:39:30;;;;;;;;;;;;;;;;;;5054789;28;20041;-65
2022/07/25 04:41:56;;;;;;;18.98;11.40;;;;;;;;;;5054479;28;20037;-65
2022/07/25 04:44:23;;;;;;;17.10;10.88;;;;;;;;;;5053811;28;20353;-65
2022/07/25 04:46:49;;;;;;;19.00;11.05;;;;;;;;;;5036638;28;20483;-65
2022/07/25 04:49:15;;;;;;;17.10;10.93;;;;;;;;;;5053908;28;20052;-65
2022/07/25 04:51:41;;;;;;;;;;;;;;;;;;5054080;28;20060;-65
2022/07/25 04:54:08;;;;;;;19.08;11.50;;;;;;;;;;5054003;28;19920;-65
2022/07/25 04:56:34;;;;;;;19.50;12.05;;;;;;;;;;5054445;28;20088;-67
2022/07/25 04:59:00;;;;;;;17.58;11.68;;;;;;;;;;5054215;28;20044;-65
2022/07/25 05:01:26;;;;;;;;;;;;;;;;;;5054657;28;20045;-66
2022/07/25 05:03:52;;;;;;;19.05;12.43;;;;;;;;;;5054705;28;19927;-65
2022/07/25 05:06:18;;;;;;;;;;;;;;;;;;5054147;28;20045;-65
2022/07/25 05:08:44;;;;;;;19.27;11.88;;;;;;;;;;5053772;28;19964;-66
2022/07/25 05:11:10;;;;;;;;;;;;;;;;;;5054285;28;20107;-65
2022/07/25 05:13:36;;;;;;;18.38;12.00;;;;;;;;;;5054062;28;20367;-66
2022/07/25 05:16:02;;;;;;;19.55;11.77;;;;;;;;;;5037040;28;20044;-66
2022/07/25 05:18:28;;;;;;;;;;;;;;;;;;5021436;28;20036;-67
2022/07/25 05:20:54;;;;;;;21.40;13.25;;;;;;;;;;5056003;28;19974;-65
2022/07/25 05:23:21;;;;;;;;;;;;;;;;;;5054647;28;20128;-65
2022/07/25 05:25:47;;;;;;;22.02;13.15;;;;;;;;;;5054751;28;19924;-65
2022/07/25 05:28:13;;;;;;;19.23;12.43;;;;;;;;;;5055037;28;20041;-65
2022/07/25 05:30:39;;;;;;;19.70;12.85;;;;;;;;;;5055114;28;20131;-66
2022/07/25 05:33:05;;;;;;;20.67;13.60;;;;;;;;;;5054964;28;20572;-66
2022/07/25 05:35:32;;;;;;;21.00;13.35;;;;;;;;;;5054001;28;20187;-66
2022/07/25 05:37:57;;;;;;;;;;;;;;;;;;5054657;28;20037;-65
2022/07/25 05:40:24;;;;;;;22.27;14.45;;;;;;;;;;5054473;28;20015;-67
2022/07/25 05:42:50;;;;;;;19.45;13.30;;;;;;;;;;5053871;28;20041;-66
2022/07/25 05:45:16;;;;;;;;;;;;;;;;;;5054511;28;20377;-67
2022/07/25 05:47:42;;;;;;;21.20;14.65;;;;;;;;;;5054305;28;19947;-66
2022/07/25 05:50:08;;;;;;;22.17;14.55;;;;;;;;;;5036235;28;20048;-66
2022/07/25 05:52:35;;;;;;;24.20;14.60;;;;;;;;;;5054111;28;20132;-66
2022/07/25 05:55:01;;;;;;;20.73;14.48;;;;;;;;;;5053963;28;20053;-66
2022/07/25 05:57:27;;;;;;;;;;;;;;;;;;5036368;28;20041;-65
2022/07/25 05:59:53;;;;;;;23.80;14.82;;;;;;;;;;5053952;28;19927;-66
2022/07/25 06:02:19;;;;;;;22.27;14.88;;;;;;;;;;5053965;28;20414;-65
2022/07/25 06:04:45;;;;;;;;;;;;;;;;;;5054044;28;20429;-66
2022/07/25 06:07:11;;;;;;;22.15;15.52;;;;;;;;;;5053921;28;19963;-65
2022/07/25 06:09:37;;;;;;;20.60;14.30;;;;;;;;;;5053934;28;20049;-66
2022/07/25 06:12:03;;;;;;;;;;;;;;;;;;5054395;28;20044;-66
2022/07/25 06:14:29;;;;;;;23.00;15.53;;;;;;;;;;5053821;28;19967;-69
2022/07/25 06:16:55;;;;;;;;;;;;;;;;;;5053863;28;20500;-66
2022/07/25 06:19:22;;;;;;;20.80;14.25;;;;;;;;;;5036579;28;19984;-66
2022/07/25 06:21:48;;;;;;;21.52;15.02;;;;;;;;;;5054666;28;20437;-65
2022/07/25 06:24:14;;;;;;;23.52;14.88;;;;;;;;;;5054221;28;20128;-67
2022/07/25 06:26:40;;;;;;;;;;;;;;;;;;5054575;28;20044;-67
2022/07/25 06:29:06;;;;;;;21.35;15.25;;;;;;;;;;5054686;28;19931;-66
2022/07/25 06:31:32;;;;;;;;;;;;;;;;;;5054284;28;20135;-71
2022/07/25 06:33:58;;;;;;;20.83;14.95;;;;;;;;;;5054804;28;19951;-66
2022/07/25 06:36:24;;;;;;;;;;;;;;;;;;5054291;28;20094;-65
2022/07/25 06:38:50;;;;;;;21.10;14.68;;;;;;;;;;5053869;28;19920;-66
2022/07/25 06:41:17;;;;;;;20.80;14.68;;;;;;;;;;5053550;28;20098;-66
2022/07/25 06:43:43;;;;;;;20.15;14.60;;;;;;;;;;5054318;28;20045;-66
2022/07/25 06:46:09;;;;;;;28.65;15.50;;;;;;;;;;5053755;28;20044;-66
2022/07/25 06:48:35;;;;;;;;;;;;;;;;;;5054116;28;20080;-67
2022/07/25 06:51:01;;;;;;;20.50;15.18;;;;;;;;;;5054436;28;19975;-68
2022/07/25 06:53:27;;;;;;;24.90;14.07;;;;;;;;;;5053891;28;20099;-66
2022/07/25 06:55:53;;;;;;;23.10;14.52;;;;;;;;;;5053507;28;20049;-67
2022/07/25 06:58:19;;;;;;;;;;;;;;;;;;5053927;28;20048;-66
2022/07/25 07:00:45;;;;;;;22.07;13.97;;;;;;;;;;5053517;28;19924;-67
2022/07/25 07:03:11;;;;;;;23.23;13.18;;;;;;;;;;5053556;28;20492;-66
2022/07/25 07:05:40;;;;;;;23.45;14.05;;;;;;;;;;5035642;28;20045;-67
2022/07/25 07:08:06;;;;;;;20.17;13.65;;;;;;;;;;5053488;28;20049;-67
2022/07/25 07:10:32;;;;;;;22.60;13.98;;;;;;;;;;5053437;28;20051;-67
2022/07/25 07:13:02;;;;;;;23.83;13.48;;;;;;;;;;5053546;28;20150;-66
2022/07/25 07:15:29;;;;;;;22.25;13.40;;;;;;;;;;5053967;28;20119;-66
2022/07/25 07:17:55;;;;;;;21.40;13.82;;;;;;;;;;5052746;28;20045;-66
2022/07/25 07:20:21;;;;;;;19.92;13.98;;;;;;;;;;5053559;28;20071;-67
2022/07/25 07:22:47;;;;;;;25.63;14.38;;;;;;;;;;5053104;28;20048;-67
2022/07/25 07:25:14;;;;;;;21.98;14.10;;;;;;;;;;5053085;28;20045;-69
2022/07/25 07:27:41;;;;;;;21.83;14.25;;;;;;;;;;5052915;28;20132;-68
2022/07/25 07:30:07;;;;;;;22.67;14.95;;;;;;;;;;5052355;28;20488;-67
2022/07/25 07:32:33;;;;;;;21.73;14.27;;;;;;;;;;5053026;28;20122;-67
2022/07/25 07:34:59;;;;;;;22.23;14.15;;;;;;;;;;5052847;28;20560;-67
2022/07/25 07:37:25;;;;;;;23.48;14.55;;;;;;;;;;5052816;28;20124;-66
2022/07/25 07:39:51;;;;;;;;;;;;;;;;;;5052803;28;20439;-68
2022/07/25 07:42:17;;;;;;;20.00;14.40;;;;;;;;;;5053113;28;19940;-66
2022/07/25 07:44:43;;;;;;;21.73;12.77;;;;;;;;;;5052991;28;20045;-66
2022/07/25 07:47:09;;;;;;;20.85;12.82;;;;;;;;;;5052277;28;20105;-65
2022/07/25 07:49:35;;;;;;;21.02;13.45;;;;;;;;;;5052647;28;20051;-67
2022/07/25 07:52:01;;;;;;;21.33;13.40;;;;;;;;;;5052480;28;20535;-66
2022/07/25 07:57:12;;;;;;;19.23;12.00;;;;;;;;;;5051768;28;20334;-67
2022/07/25 07:59:38;;;;;;;;;;;;;;;;;;5052490;28;20392;-66
2022/07/25 08:02:05;;;;;;;20.05;10.80;;;;;;;;;;5052816;28;19928;-68
2022/07/25 08:04:31;;;;;;;19.92;10.93;;;;;;;;;;5052320;28;20056;-67
2022/07/25 08:06:57;;;;;;;;;;;;;;;;;;5053064;28;20056;-66
2022/07/25 08:09:24;;;;;;;18.25;10.50;;;;;;;;;;5052726;28;19921;-66
2022/07/25 08:11:51;;;;;;;18.08;11.93;;;;;;;;;;5052054;28;20053;-67
2022/07/25 08:14:17;;;;;;;17.20;10.52;;;;;;;;;;5051938;28;20052;-66
2022/07/25 08:16:43;;;;;;;17.58;10.15;;;;;;;;;;5033812;28;20040;-66
2022/07/25 08:19:09;;;;;;;15.90;9.98;;;;;;;;;;5051478;28;20052;-66
2022/07/25 08:21:35;;;;;;;17.65;10.13;;;;;;;;;;5051716;28;20463;-65
2022/07/25 08:24:01;;;;;;;17.63;10.18;;;;;;;;;;5052239;28;20045;-66
2022/07/25 08:26:29;;;;;;;18.48;10.30;;;;;;;;;;5051903;28;20128;-66
2022/07/25 08:28:56;;;;;;;16.67;9.88;;;;;;;;;;5051720;28;20093;-66
2022/07/25 08:31:22;;;;;;;21.38;9.98;;;;;;;;;;5051415;28;20088;-67
2022/07/25 08:33:49;;;;;;;18.65;10.45;;;;;;;;;;5051831;28;20064;-65
2022/07/25 08:36:15;;;;;;;16.00;9.02;;;;;;;;;;5051624;28;20107;-66
2022/07/25 08:38:41;;;;;;;17.00;9.20;;;;;;;;;;5052238;28;20373;-66
2022/07/25 08:41:07;;;;;;;15.77;9.45;;;;;;;;;;5034704;28;20365;-66
2022/07/25 08:43:36;;;;;;;15.80;8.90;;;;;;;;;;5052246;28;20437;-66
2022/07/25 08:46:04;;;;;;;18.08;9.10;;;;;;;;;;5051381;28;20465;-66
2022/07/25 08:48:30;;;;;;;18.73;9.40;;;;;;;;;;5051804;28;20076;-66
2022/07/25 08:50:57;;;;;;;17.52;10.05;;;;;;;;;;5051372;28;20048;-67
2022/07/25 08:53:23;;;;;;;18.02;9.30;;;;;;;;;;5051565;28;20547;-66
2022/07/25 08:55:49;;;;;;;17.48;9.18;;;;;;;;;;5051550;28;20045;-66
2022/07/25 08:58:16;;;;;;;16.98;8.73;;;;;;;;;;5052846;28;20048;-66
2022/07/25 09:00:43;;;;;;;17.38;7.43;;;;;;;;;;5054900;28;20149;-66
2022/07/25 09:03:09;;;;;;;15.00;6.60;;;;;;;;;;5054493;28;20041;-65
2022/07/25 09:05:36;;;;;;;16.45;6.25;;;;;;;;;;5054632;28;20088;-65
2022/07/25 09:08:06;;;;;;;14.98;6.13;;;;;;;;;;5054420;28;20041;-66
2022/07/25 09:10:32;;;;;;;12.02;5.75;;;;;;;;;;5054744;28;20098;-65
2022/07/25 09:12:58;;;;;;;9.75;4.28;;;;;;;;;;5054571;28;20052;-64
2022/07/25 09:15:24;;;;;;;;;;;;;;;;;;5055398;28;20074;-67
2022/07/25 09:17:51;;;;;;;10.43;4.20;;;;;;;;;;5055578;28;19928;-66
2022/07/25 09:20:17;;;;;;;11.85;4.53;;;;;;;;;;5054928;28;20485;-69
2022/07/25 09:22:44;;;;;;;12.48;4.15;;;;;;;;;;5054833;28;20098;-67
2022/07/25 09:25:28;;;;;;;15.82;4.97;;;;;;;;;;5054435;28;20210;-67
2022/07/25 09:27:55;;;;;;;11.95;4.35;;;;;;;;;;5036535;28;20429;-71
2022/07/25 09:30:21;;;;;;;13.30;4.32;;;;;;;;;;5054395;28;20052;-66
2022/07/25 09:32:59;;;;;;;11.32;4.15;;;;;;;;;;5053638;28;20128;-67
2022/07/25 09:35:33;;;;;;;14.57;4.10;;;;;;;;;;5054620;28;20060;-67
2022/07/25 09:38:08;;;;;;;10.05;3.70;;;;;;;;;;5054284;28;20087;-67
2022/07/25 09:40:34;;;;;;;10.25;3.58;;;;;;;;;;5054417;28;20049;-67
2022/07/25 09:43:00;;;;;;;10.07;3.67;;;;;;;;;;5054550;28;20052;-67
2022/07/25 09:45:26;;;;;;;8.07;3.28;;;;;;;;;;5054681;28;20139;-67
2022/07/25 09:47:54;;;;;;;10.40;3.58;;;;;;;;;;5054021;28;20120;-68
2022/07/25 09:50:20;;;;;;;8.98;3.55;;;;;;;;;;5054346;28;20499;-67
2022/07/25 09:52:46;;;;;;;9.95;3.38;;;;;;;;;;5054670;28;20080;-68
2022/07/25 09:55:14;;;;;;;8.93;3.50;;;;;;;;;;5054385;28;20071;-68
2022/07/25 09:57:40;;;;;;;7.97;3.20;;;;;;;;;;5053975;28;20080;-67
2022/07/25 10:00:07;;;;;;;11.77;3.30;;;;;;;;;;5053240;28;20059;-70
2022/07/25 10:02:47;;;;;;;8.10;3.03;;;;;;;;;;5054587;28;20052;-68
2022/07/25 10:05:20;;;;;;;10.98;3.05;;;;;;;;;;5054690;28;20071;-68
2022/07/25 10:07:47;;;;;;;9.07;2.70;;;;;;;;;;5054532;28;20041;-66
2022/07/25 10:10:27;;;;;;;8.30;2.80;;;;;;;;;;5053731;28;20052;-70
2022/07/25 10:13:00;;;;;;;10.52;3.00;;;;;;;;;;5054222;28;20132;-69
2022/07/25 10:15:26;;;;;;;9.27;3.22;;;;;;;;;;5053877;28;20071;-67
2022/07/25 10:18:02;;;;;;;9.15;3.03;;;;;;;;;;5054059;28;20161;-70
2022/07/25 10:20:29;;;;;;;8.65;3.25;;;;;;;;;;5054633;28;20049;-68
2022/07/25 10:22:55;;;;;;;9.27;3.55;;;;;;;;;;5054032;28;20063;-67
2022/07/25 10:25:21;;;;;;;10.90;3.90;;;;;;;;;;5053985;28;20062;-68
2022/07/25 10:27:48;;;;;;;8.98;3.67;;;;;;;;;;5053674;28;20049;-67
2022/07/25 10:30:22;;;;;;;8.75;3.38;;;;;;;;;;5054377;28;20044;-68
2022/07/25 10:32:49;;;;;;;10.40;3.72;;;;;;;;;;5053404;28;20057;-68
2022/07/25 10:35:18;;;;;;;11.93;4.05;;;;;;;;;;5054458;28;20048;-67
2022/07/25 10:37:46;;;;;;;10.02;3.85;;;;;;;;;;5053579;28;20181;-69
2022/07/25 10:40:23;;;;;;;10.43;3.80;;;;;;;;;;5052651;28;20476;-68
2022/07/25 10:42:50;;;;;;;12.02;4.40;;;;;;;;;;5035573;28;20098;-67
2022/07/25 10:45:17;;;;;;;12.02;4.03;;;;;;;;;;5052239;28;20048;-67
2022/07/25 10:47:50;;;;;;;12.60;4.50;;;;;;;;;;5052370;28;20041;-67
2022/07/25 10:50:18;;;;;;;14.30;5.50;;;;;;;;;;5052550;28;20052;-67
2022/07/25 10:52:44;;;;;;;11.73;4.78;;;;;;;;;;5052216;28;20147;-69
2022/07/25 10:55:21;;;;;;;14.00;4.68;;;;;;;;;;5052336;28;20049;-69
2022/07/25 10:57:58;;;;;;;12.43;4.20;;;;;;;;;;5052413;28;20130;-67
2022/07/25 11:00:24;;;;;;;16.10;4.72;;;;;;;;;;5052739;28;20102;-66
2022/07/25 11:02:55;;;;;;;11.55;4.20;;;;;;;;;;5051689;28;20505;-67
2022/07/25 11:05:21;;;;;;;12.23;3.40;;;;;;;;;;5052347;28;20045;-68
2022/07/25 11:07:53;;;;;;;11.65;4.30;;;;;;;;;;5034786;28;20084;-66
2022/07/25 11:10:26;;;;;;;12.02;3.90;;;;;;;;;;5053065;28;20056;-68
2022/07/25 11:12:53;;;;;;;11.63;3.95;;;;;;;;;;5052636;28;20041;-67
2022/07/25 11:15:22;;;;;;;17.30;4.30;;;;;;;;;;5052493;28;20099;-66
2022/07/25 11:17:51;;;;;;;12.65;3.60;;;;;;;;;;5053182;28;20037;-67
2022/07/25 11:20:18;;;;;;;10.85;3.83;;;;;;;;;;5034693;28;20428;-68
2022/07/25 11:22:51;;;;;;;13.38;3.80;;;;;;;;;;5051293;28;20550;-68
2022/07/25 11:25:19;;;;;;;12.13;3.80;;;;;;;;;;5052334;28;20055;-63
2022/07/25 11:27:49;;;;;;;12.52;3.90;;;;;;;;;;5052898;28;20524;-65
2022/07/25 11:30:16;;;;;;;11.70;4.15;;;;;;;;;;5052674;28;20053;-67
2022/07/25 11:32:45;;;;;;;17.98;4.30;;;;;;;;;;5052927;28;20092;-65
2022/07/25 11:35:13;;;;;;;11.13;3.70;;;;;;;;;;5052743;28;20132;-70
2022/07/25 11:37:40;;;;;;;12.23;3.55;;;;;;;;;;5035044;28;20102;-66
2022/07/25 11:40:06;;;;;;;14.98;4.32;;;;;;;;;;5052573;28;20048;-66
2022/07/25 11:42:46;;;;;;;11.32;3.78;;;;;;;;;;5051315;28;20110;-66
2022/07/25 11:45:16;;;;;;;13.02;3.95;;;;;;;;;;5053261;28;20063;-68
2022/07/25 11:47:43;;;;;;;13.23;4.03;;;;;;;;;;5053425;28;20045;-67
2022/07/25 11:50:13;;;;;;;13.82;4.38;;;;;;;;;;5052521;28;20385;-66
2022/07/25 11:52:41;;;;;;;14.85;4.47;;;;;;;;;;5052763;28;20132;-66
2022/07/25 11:55:17;;;;;;;18.35;4.00;;;;;;;;;;5052475;28;20088;-66
2022/07/25 11:57:45;;;;;;;16.05;4.90;;;;;;;;;;5052532;28;20060;-64
2022/07/25 12:00:19;;;;;;;14.93;4.05;;;;;;;;;;5052480;28;20044;-66
2022/07/25 12:02:45;;;;;;;12.65;3.90;;;;;;;;;;5052595;28;20056;-68
2022/07/25 12:05:13;;;;;;;13.00;3.92;;;;;;;;;;5052276;28;20563;-65
2022/07/25 12:07:47;;;;;;;17.73;4.13;;;;;;;;;;5051615;28;20464;-65
2022/07/25 12:10:21;;;;;;;12.48;3.65;;;;;;;;;;5052262;28;20473;-64
2022/07/25 12:12:52;;;;;;;12.90;3.70;;;;;;;;;;5052176;28;20384;-67
2022/07/25 12:15:22;;;;;;;13.07;3.60;;;;;;;;;;5051855;28;20049;-67
2022/07/25 12:17:50;;;;;;;12.70;3.85;;;;;;;;;;5051465;28;20041;-67
2022/07/25 12:20:17;;;;;;;13.50;3.70;;;;;;;;;;5051403;28;20055;-65
2022/07/25 12:22:43;;;;;;;11.18;3.70;;;;;;;;;;5050857;28;20128;-69
2022/07/25 12:25:09;;;;;;;13.02;3.90;;;;;;;;;;5051898;28;20049;-69
2022/07/25 12:27:35;;;;;;;13.57;3.30;;;;;;;;;;5051175;28;20054;-67
2022/07/25 12:30:01;;;;;;;11.32;3.50;;;;;;;;;;5051635;28;20144;-64
2022/07/25 12:32:28;;;;;;;13.38;3.70;;;;;;;;;;5051662;28;20537;-65
2022/07/25 12:34:54;;;;;;;13.18;2.90;;;;;;;;;;5054444;28;20053;-66
2022/07/25 12:37:20;;;;;;;14.90;3.33;;;;;;;;;;5055688;28;20068;-69
2022/07/25 12:39:46;;;;;;;9.57;3.05;;;;;;;;;;5055315;28;20132;-63
2022/07/25 12:42:12;;;;;;;12.73;3.05;;;;;;;;;;5055310;28;20109;-65
2022/07/25 12:44:38;;;;;;;12.07;3.70;;;;;;;;;;5055511;28;20461;-67
2022/07/25 12:47:05;;;;;;;14.38;3.40;;;;;;;;;;5054937;28;20045;-67
2022/07/25 12:49:31;;;;;;;11.45;2.92;;;;;;;;;;5037381;28;20063;-66
2022/07/25 12:51:57;;;;;;;11.90;3.53;;;;;;;;;;5053012;28;20404;-65
2022/07/25 12:54:23;;;;;;;11.18;3.22;;;;;;;;;;5054686;28;20323;-68
2022/07/25 12:56:49;;;;;;;11.88;3.00;;;;;;;;;;5055157;28;20052;-68
2022/07/25 12:59:16;;;;;;;16.42;3.60;;;;;;;;;;5036454;28;20405;-65
2022/07/25 13:01:42;;;;;;;10.13;3.10;;;;;;;;;;5054554;28;20052;-65
2022/07/25 13:04:08;;;;;;;12.02;3.42;;;;;;;;;;5054847;28;20135;-66
2022/07/25 13:06:37;;;;;;;10.40;3.20;;;;;;;;;;5054246;28;20100;-64
2022/07/25 13:09:03;;;;;;;11.65;3.10;;;;;;;;;;5054802;28;20469;-64
2022/07/25 13:11:29;;;;;;;11.57;3.28;;;;;;;;;;5055055;28;20064;-67
2022/07/25 13:13:55;;;;;;;11.32;3.30;;;;;;;;;;5054830;28;20115;-63
2022/07/25 13:16:22;;;;;;;11.13;3.25;;;;;;;;;;5053307;28;20539;-63
2022/07/25 13:18:48;;;;;;;14.25;3.20;;;;;;;;;;5053944;28;20099;-66
2022/07/25 13:21:14;;;;;;;13.15;3.08;;;;;;;;;;5054185;28;20135;-63
2022/07/25 13:23:40;;;;;;;13.25;3.13;;;;;;;;;;5053834;28;20378;-66
2022/07/25 13:26:07;;;;;;;10.68;2.92;;;;;;;;;;5054340;28;20482;-63
2022/07/25 13:28:33;;;;;;;13.10;3.58;;;;;;;;;;5054502;28;20484;-65
2022/07/25 13:31:00;;;;;;;14.57;3.55;;;;;;;;;;5054046;28;20045;-64
2022/07/25 13:33:26;;;;;;;13.48;3.72;;;;;;;;;;5054867;28;20069;-64
2022/07/25 13:35:53;;;;;;;13.00;3.60;;;;;;;;;;5054458;28;20049;-64
2022/07/25 13:38:19;;;;;;;13.77;3.63;;;;;;;;;;5053703;28;20045;-64
2022/07/25 13:40:45;;;;;;;16.27;3.60;;;;;;;;;;5053468;28;20049;-65
2022/07/25 13:43:11;;;;;;;;;;;;;;;;;;5054254;28;20106;-64
2022/07/25 13:45:37;;;;;;;14.02;3.17;;;;;;;;;;5052598;28;19924;-65
2022/07/25 13:48:03;;;;;;;13.80;3.67;;;;;;;;;;5036117;28;20197;-66
2022/07/25 13:50:30;;;;;;;18.35;3.88;;;;;;;;;;5053916;28;20041;-64
2022/07/25 13:52:56;;;;;;;12.57;3.90;;;;;;;;;;5053837;28;20078;-66
2022/07/25 13:55:22;;;;;;;12.88;3.65;;;;;;;;;;5053514;28;20057;-67
2022/07/25 13:57:49;;;;;;;13.32;4.40;;;;;;;;;;5053453;28;20049;-66
2022/07/25 14:00:15;;;;;;;14.25;4.20;;;;;;;;;;5053236;28;20048;-64
2022/07/25 14:02:41;;;;;;;12.70;3.45;;;;;;;;;;5053034;28;20057;-65
2022/07/25 14:05:07;;;;;;;;;;;;;;;;;;5053707;28;20097;-65
2022/07/25 14:07:36;;;;;;;18.33;4.13;;;;;;;;;;5053129;28;20007;-65
2022/07/25 14:10:04;;;;;;;15.57;4.03;;;;;;;;;;5052939;28;20331;-65
2022/07/25 14:12:30;;;;;;;16.77;4.82;;;;;;;;;;5051768;28;20045;-66
2022/07/25 14:14:56;;;;;;;13.98;3.95;;;;;;;;;;5052121;28;20507;-65
2022/07/25 14:17:22;;;;;;;13.75;3.90;;;;;;;;;;5053104;28;20041;-66
2022/07/25 14:19:48;;;;;;;14.25;3.53;;;;;;;;;;5052478;28;20051;-65
2022/07/25 14:22:14;;;;;;;;;;;;;;;;;;5052900;28;20099;-66
2022/07/25 14:24:40;;;;;;;14.18;3.45;;;;;;;;;;5052456;28;20357;-64
2022/07/25 14:27:06;;;;;;;;;;;;;;;;;;5053037;28;20049;-66
2022/07/25 14:29:32;;;;;;;15.02;3.60;;;;;;;;;;5052616;28;19928;-65
2022/07/25 14:31:58;;;;;;;13.35;3.22;;;;;;;;;;5052245;28;20053;-66
2022/07/25 14:34:24;;;;;;;13.55;3.95;;;;;;;;;;5052765;28;20057;-66
2022/07/25 14:36:50;;;;;;;10.52;3.58;;;;;;;;;;5052938;28;20136;-66
2022/07/25 14:39:16;;;;;;;;;;;;;;;;;;5052978;28;20496;-65
2022/07/25 14:41:42;;;;;;;12.30;3.53;;;;;;;;;;5052084;28;19921;-66
2022/07/25 14:44:08;;;;;;;;;;;;;;;;;;5052425;28;20276;-67